Time;durP1;ratioP1;P1;durP2;ratioP2;P2;SDS_P1;SDS_P2;PMS_P1;PMS_P2;Temp;Humidity;BMP_temperature;BMP_pressure;BME280_temperature;BME280_humidity;BME280_pressure;Samples;Min_cycle;Max_cycle;Signal;HPM_P1;HPM_P2
2023/04/10 00:01:52;;;;;;;8.10;6.27;;;;;;;;;;5035856;28;20234;-88
2023/04/10 00:04:21;;;;;;;8.70;6.87;;;;;;;;;;5036192;28;20226;-88
2023/04/10 00:06:48;;;;;;;8.10;6.63;;;;;;;;;;5035737;28;20234;-88
2023/04/10 00:09:15;;;;;;;8.97;7.37;;;;;;;;;;5036497;28;20241;-88
2023/04/10 00:11:43;;;;;;;8.83;6.03;;;;;;;;;;5035729;28;20233;-88
2023/04/10 00:14:10;;;;;;;8.00;6.20;;;;;;;;;;5041390;28;20290;-88
2023/04/10 00:16:37;;;;;;;6.87;6.17;;;;;;;;;;5055496;28;20229;-88
2023/04/10 00:19:04;;;;;;;8.70;6.17;;;;;;;;;;5055988;28;20237;-88
2023/04/10 00:21:32;;;;;;;7.70;6.10;;;;;;;;;;5055333;28;20233;-88
2023/04/10 00:23:59;;;;;;;7.27;6.40;;;;;;;;;;5057587;28;20238;-88
2023/04/10 00:26:26;;;;;;;7.73;6.77;;;;;;;;;;5052234;28;20229;-88
2023/04/10 00:28:53;;;;;;;6.67;5.97;;;;;;;;;;5036574;28;20199;-88
2023/04/10 00:31:20;;;;;;;8.00;6.40;;;;;;;;;;5037960;28;20253;-88
2023/04/10 00:33:47;;;;;;;7.30;6.10;;;;;;;;;;5037985;28;20228;-88
2023/04/10 00:36:15;;;;;;;7.03;6.30;;;;;;;;;;5055443;28;20218;-88
2023/04/10 00:38:43;;;;;;;7.17;6.03;;;;;;;;;;5056503;28;20236;-88
2023/04/10 00:41:10;;;;;;;7.37;6.17;;;;;;;;;;5050684;28;20226;-88
2023/04/10 00:43:37;;;;;;;11.27;6.20;;;;;;;;;;5036634;28;20210;-88
2023/04/10 00:46:05;;;;;;;7.00;6.17;;;;;;;;;;5035921;28;20233;-87
2023/04/10 00:48:32;;;;;;;7.23;6.13;;;;;;;;;;5049214;28;20223;-88
2023/04/10 00:51:00;;;;;;;8.03;6.37;;;;;;;;;;5042990;28;20252;-88
2023/04/10 00:53:27;;;;;;;7.27;6.57;;;;;;;;;;5055433;28;20204;-88
2023/04/10 00:55:56;;;;;;;7.43;6.63;;;;;;;;;;5051169;28;20244;-87
2023/04/10 00:58:23;;;;;;;7.97;6.70;;;;;;;;;;5055972;28;20204;-88
2023/04/10 01:00:50;;;;;;;10.37;7.23;;;;;;;;;;5054974;28;20209;-87
2023/04/10 01:03:26;;;;;;;8.57;6.63;;;;;;;;;;5053280;28;20208;-88
2023/04/10 01:05:57;;;;;;;8.07;6.83;;;;;;;;;;5047807;28;20206;-87
2023/04/10 01:08:30;;;;;;;9.67;6.60;;;;;;;;;;5055494;28;20213;-87
2023/04/10 01:11:02;;;;;;;7.97;6.37;;;;;;;;;;5055501;28;20247;-87
2023/04/10 01:13:33;;;;;;;6.93;6.10;;;;;;;;;;5055490;28;20199;-87
2023/04/10 01:16:02;;;;;;;9.60;5.97;;;;;;;;;;5055583;28;20230;-87
2023/04/10 01:18:32;;;;;;;8.30;6.70;;;;;;;;;;5055607;28;20213;-87
2023/04/10 01:20:59;;;;;;;7.93;6.17;;;;;;;;;;5054701;28;21078;-87
2023/04/10 01:23:42;;;;;;;7.30;6.43;;;;;;;;;;5055619;28;20293;-88
2023/04/10 01:26:11;;;;;;;6.57;5.77;;;;;;;;;;5055053;28;20629;-87
2023/04/10 01:28:52;;;;;;;8.17;5.30;;;;;;;;;;5055336;28;20674;-87
2023/04/10 01:31:21;;;;;;;7.23;5.93;;;;;;;;;;5054501;28;20256;-87
2023/04/10 01:33:50;;;;;;;6.87;6.13;;;;;;;;;;5055424;28;20231;-87
2023/04/10 01:36:21;;;;;;;8.00;6.17;;;;;;;;;;5054505;28;20261;-87
2023/04/10 01:38:50;;;;;;;7.13;6.10;;;;;;;;;;5055255;28;20207;-87
2023/04/10 01:41:17;;;;;;;6.80;6.07;;;;;;;;;;5054907;28;20235;-87
2023/04/10 01:43:46;;;;;;;7.63;6.57;;;;;;;;;;5054950;28;20228;-87
2023/04/10 01:46:15;;;;;;;7.90;6.27;;;;;;;;;;5054344;28;20238;-87
2023/04/10 01:48:42;;;;;;;8.00;6.73;;;;;;;;;;5055303;28;20244;-87
2023/04/10 01:51:10;;;;;;;7.50;6.03;;;;;;;;;;5054276;28;20237;-87
2023/04/10 01:53:37;;;;;;;7.37;6.60;;;;;;;;;;5054709;28;20199;-87
2023/04/10 01:56:04;;;;;;;11.77;6.83;;;;;;;;;;5054203;28;20235;-87
2023/04/10 01:58:31;;;;;;;7.07;6.37;;;;;;;;;;5055270;28;20237;-87
2023/04/10 02:00:58;;;;;;;12.67;6.97;;;;;;;;;;5055863;28;20242;-87
2023/04/10 02:03:27;;;;;;;7.43;6.20;;;;;;;;;;5051640;28;20269;-87
2023/04/10 02:06:02;;;;;;;7.23;6.33;;;;;;;;;;5035158;28;22303;-86
2023/04/10 02:08:31;;;;;;;7.73;6.83;;;;;;;;;;5035277;28;20577;-86
2023/04/10 02:11:02;;;;;;;7.40;6.60;;;;;;;;;;5034573;28;20281;-87
2023/04/10 02:13:30;;;;;;;8.63;6.10;;;;;;;;;;5034911;28;20226;-87
2023/04/10 02:16:00;;;;;;;8.10;7.30;;;;;;;;;;5034488;28;20231;-86
2023/04/10 02:18:28;;;;;;;10.20;7.40;;;;;;;;;;5034524;28;20203;-87
2023/04/10 02:20:56;;;;;;;8.23;6.73;;;;;;;;;;5034315;28;20237;-86
2023/04/10 02:23:23;;;;;;;8.73;6.63;;;;;;;;;;5034688;28;20249;-87
2023/04/10 02:25:51;;;;;;;6.93;6.23;;;;;;;;;;5043537;28;20378;-87
2023/04/10 02:28:18;;;;;;;7.13;6.13;;;;;;;;;;5054096;28;20224;-86
2023/04/10 02:30:45;;;;;;;7.80;7.00;;;;;;;;;;5053634;28;20544;-86
2023/04/10 02:33:12;;;;;;;10.23;6.77;;;;;;;;;;5054290;28;20202;-87
2023/04/10 02:35:41;;;;;;;7.87;6.17;;;;;;;;;;5046183;28;20225;-87
2023/04/10 02:38:17;;;;;;;9.80;6.83;;;;;;;;;;5034655;28;20215;-87
2023/04/10 02:40:45;;;;;;;7.30;6.53;;;;;;;;;;5033592;28;20188;-87
2023/04/10 02:43:12;;;;;;;6.80;6.10;;;;;;;;;;5033586;28;20210;-87
2023/04/10 02:45:39;;;;;;;8.23;6.97;;;;;;;;;;5033190;28;20745;-87
2023/04/10 02:48:06;;;;;;;8.83;7.40;;;;;;;;;;5034110;28;20226;-87
2023/04/10 02:50:33;;;;;;;10.33;7.20;;;;;;;;;;5035379;28;20709;-87
2023/04/10 02:53:01;;;;;;;7.53;6.40;;;;;;;;;;5034971;28;20213;-87
2023/04/10 02:55:28;;;;;;;11.30;7.03;;;;;;;;;;5034446;28;20232;-87
2023/04/10 02:57:56;;;;;;;9.67;7.20;;;;;;;;;;5034099;28;20230;-86
2023/04/10 03:00:23;;;;;;;9.00;6.90;;;;;;;;;;5035414;28;20214;-87
2023/04/10 03:02:50;;;;;;;10.33;7.63;;;;;;;;;;5035988;28;20307;-87
2023/04/10 03:05:17;;;;;;;8.33;6.80;;;;;;;;;;5047407;28;20241;-87
2023/04/10 03:07:44;;;;;;;9.67;7.17;;;;;;;;;;5056544;28;20225;-87
2023/04/10 03:10:13;;;;;;;9.23;7.17;;;;;;;;;;5067629;28;20225;-87
2023/04/10 03:12:40;;;;;;;8.93;6.37;;;;;;;;;;5067100;28;20268;-87
2023/04/10 03:15:07;;;;;;;8.43;7.37;;;;;;;;;;5065741;28;20226;-87
2023/04/10 03:17:34;;;;;;;9.33;7.07;;;;;;;;;;5056133;28;20230;-87
2023/04/10 03:20:01;;;;;;;9.87;7.30;;;;;;;;;;5055525;28;20209;-87
2023/04/10 03:22:31;;;;;;;7.60;6.73;;;;;;;;;;5054272;28;20237;-87
2023/04/10 03:24:58;;;;;;;7.83;7.03;;;;;;;;;;5055034;28;20222;-87
2023/04/10 03:27:26;;;;;;;9.27;7.27;;;;;;;;;;5053703;28;20234;-87
2023/04/10 03:29:53;;;;;;;8.10;6.83;;;;;;;;;;5058116;28;20209;-87
2023/04/10 03:32:20;;;;;;;10.10;7.27;;;;;;;;;;5057534;28;20244;-87
2023/04/10 03:34:47;;;;;;;11.27;7.43;;;;;;;;;;5057581;28;20233;-87
2023/04/10 03:37:14;;;;;;;7.97;6.67;;;;;;;;;;5057242;28;20230;-87
2023/04/10 03:39:41;;;;;;;8.47;6.83;;;;;;;;;;5058144;28;20550;-87
2023/04/10 03:42:08;;;;;;;9.63;6.90;;;;;;;;;;5057130;28;20229;-86
2023/04/10 03:44:37;;;;;;;7.87;7.03;;;;;;;;;;5057279;28;20252;-87
2023/04/10 03:47:04;;;;;;;9.43;7.30;;;;;;;;;;5056066;28;20271;-87
2023/04/10 03:49:31;;;;;;;9.20;7.37;;;;;;;;;;5057554;28;20205;-87
2023/04/10 03:51:58;;;;;;;12.80;7.70;;;;;;;;;;5057396;28;20240;-87
2023/04/10 03:54:25;;;;;;;9.67;7.77;;;;;;;;;;5057307;28;20234;-87
2023/04/10 03:56:52;;;;;;;9.53;7.70;;;;;;;;;;5056798;28;20234;-87
2023/04/10 03:59:19;;;;;;;8.47;6.83;;;;;;;;;;5052464;28;20207;-87
2023/04/10 04:01:48;;;;;;;8.93;7.13;;;;;;;;;;5049233;28;20256;-87
2023/04/10 04:04:15;;;;;;;10.87;7.53;;;;;;;;;;5056865;28;20221;-87
2023/04/10 04:06:42;;;;;;;13.07;7.17;;;;;;;;;;5056155;28;20690;-87
2023/04/10 04:09:09;;;;;;;8.40;7.57;;;;;;;;;;5056195;28;20225;-87
2023/04/10 04:11:37;;;;;;;9.73;7.83;;;;;;;;;;5055325;28;20256;-87
2023/04/10 04:14:04;;;;;;;11.23;8.47;;;;;;;;;;5056040;28;20254;-87
2023/04/10 04:16:31;;;;;;;9.97;7.37;;;;;;;;;;5055683;28;20229;-88
2023/04/10 04:18:59;;;;;;;12.10;7.43;;;;;;;;;;5056187;28;20198;-88
2023/04/10 04:21:26;;;;;;;11.03;7.43;;;;;;;;;;5055247;28;20236;-88
2023/04/10 04:23:54;;;;;;;10.77;7.47;;;;;;;;;;5054054;28;20315;-88
2023/04/10 04:26:21;;;;;;;12.80;8.37;;;;;;;;;;5035448;28;20295;-88
2023/04/10 04:28:48;;;;;;;9.97;7.90;;;;;;;;;;5041455;28;20344;-88
2023/04/10 04:31:16;;;;;;;9.10;7.47;;;;;;;;;;5043455;28;20245;-88
2023/04/10 04:33:43;;;;;;;13.03;7.17;;;;;;;;;;5038313;28;20621;-88
2023/04/10 04:36:11;;;;;;;9.93;6.90;;;;;;;;;;5035344;28;20230;-88
2023/04/10 04:38:38;;;;;;;8.60;7.70;;;;;;;;;;5035501;28;20234;-89
2023/04/10 04:41:05;;;;;;;8.57;7.17;;;;;;;;;;5037014;28;20709;-88
2023/04/10 04:43:32;;;;;;;9.37;7.67;;;;;;;;;;5041326;28;20663;-88
2023/04/10 04:45:59;;;;;;;10.00;7.57;;;;;;;;;;5035226;28;20234;-88
2023/04/10 04:48:26;;;;;;;9.87;7.90;;;;;;;;;;5035672;28;20222;-88
2023/04/10 04:50:53;;;;;;;11.50;7.20;;;;;;;;;;5047516;28;20261;-90
2023/04/10 04:53:23;;;;;;;9.73;8.27;;;;;;;;;;5055061;28;20575;-89
2023/04/10 04:55:50;;;;;;;8.93;7.43;;;;;;;;;;5054813;28;20227;-90
2023/04/10 04:58:17;;;;;;;8.90;7.63;;;;;;;;;;5050144;28;20195;-89
2023/04/10 05:00:44;;;;;;;11.93;7.07;;;;;;;;;;5036532;28;20202;-89
2023/04/10 05:03:11;;;;;;;8.60;7.13;;;;;;;;;;5055284;28;20267;-90
2023/04/10 05:05:38;;;;;;;8.57;7.13;;;;;;;;;;5054700;28;20232;-88
2023/04/10 05:08:05;;;;;;;8.90;7.57;;;;;;;;;;5055149;28;20230;-88
2023/04/10 05:10:33;;;;;;;10.17;7.93;;;;;;;;;;5054342;28;20209;-87
2023/04/10 05:13:00;;;;;;;15.07;8.20;;;;;;;;;;5054871;28;20214;-87
2023/04/10 05:15:27;;;;;;;10.47;7.60;;;;;;;;;;5054763;28;20736;-87
2023/04/10 05:17:55;;;;;;;12.87;8.13;;;;;;;;;;5054384;28;20312;-88
2023/04/10 05:20:22;;;;;;;12.87;8.53;;;;;;;;;;5054840;28;20214;-87
2023/04/10 05:22:49;;;;;;;13.20;7.97;;;;;;;;;;5054122;28;20234;-87
2023/04/10 05:25:16;;;;;;;17.90;13.53;;;;;;;;;;5054922;28;20623;-87
2023/04/10 05:27:44;;;;;;;22.63;13.57;;;;;;;;;;5044093;28;20238;-87
2023/04/10 05:30:13;;;;;;;13.83;10.87;;;;;;;;;;5034539;28;20218;-88
2023/04/10 05:32:40;;;;;;;11.07;7.90;;;;;;;;;;5044713;28;20226;-87
2023/04/10 05:35:08;;;;;;;11.93;9.30;;;;;;;;;;5052349;28;20222;-87
2023/04/10 05:37:35;;;;;;;17.07;10.03;;;;;;;;;;5053985;28;20237;-87
2023/04/10 05:40:02;;;;;;;15.20;11.10;;;;;;;;;;5054668;28;20202;-87
2023/04/10 05:42:29;;;;;;;14.77;11.43;;;;;;;;;;5046221;28;20235;-87
2023/04/10 05:44:57;;;;;;;15.30;10.57;;;;;;;;;;5052708;28;20229;-87
2023/04/10 05:47:25;;;;;;;16.90;10.27;;;;;;;;;;5039562;28;20237;-87
2023/04/10 05:49:52;;;;;;;12.83;9.00;;;;;;;;;;5054288;28;20226;-87
2023/04/10 05:52:19;;;;;;;12.20;9.57;;;;;;;;;;5052932;28;20236;-87
2023/04/10 05:54:46;;;;;;;13.00;10.17;;;;;;;;;;5035196;28;20222;-87
2023/04/10 05:57:13;;;;;;;21.63;13.03;;;;;;;;;;5044976;28;20703;-88
2023/04/10 05:59:40;;;;;;;16.87;10.13;;;;;;;;;;5042178;28;20203;-87
2023/04/10 06:02:08;;;;;;;11.53;9.13;;;;;;;;;;5048999;28;20702;-87
2023/04/10 06:04:35;;;;;;;13.07;9.87;;;;;;;;;;5038644;28;20235;-87
2023/04/10 06:07:03;;;;;;;16.20;10.40;;;;;;;;;;5033076;28;20231;-87
2023/04/10 06:09:30;;;;;;;12.20;9.33;;;;;;;;;;5034018;28;20223;-88
2023/04/10 06:11:57;;;;;;;11.33;9.37;;;;;;;;;;5033314;28;20737;-87
2023/04/10 06:14:24;;;;;;;11.27;9.17;;;;;;;;;;5039897;28;20226;-88
2023/04/10 06:16:51;;;;;;;13.50;10.47;;;;;;;;;;5054135;28;20237;-87
2023/04/10 06:19:27;;;;;;;13.23;11.27;;;;;;;;;;5050141;28;20199;-87
2023/04/10 06:21:54;;;;;;;12.67;10.37;;;;;;;;;;5053083;28;20720;-88
2023/04/10 06:24:21;;;;;;;16.53;11.93;;;;;;;;;;5053606;28;20272;-87
2023/04/10 06:26:48;;;;;;;20.37;13.47;;;;;;;;;;5049540;28;20858;-87
2023/04/10 06:29:15;;;;;;;14.33;11.23;;;;;;;;;;5033383;28;20238;-87
2023/04/10 06:31:42;;;;;;;15.50;10.70;;;;;;;;;;5032817;28;20226;-87
2023/04/10 06:34:09;;;;;;;16.70;11.23;;;;;;;;;;5047988;28;20234;-87
2023/04/10 06:36:38;;;;;;;13.73;10.67;;;;;;;;;;5053008;28;20245;-88
2023/04/10 06:39:05;;;;;;;19.13;12.27;;;;;;;;;;5053383;28;20213;-88
2023/04/10 06:41:32;;;;;;;20.63;12.13;;;;;;;;;;5052757;28;20230;-89
2023/04/10 06:44:00;;;;;;;18.67;12.20;;;;;;;;;;5053168;28;20226;-89
2023/04/10 06:46:27;;;;;;;17.93;12.00;;;;;;;;;;5052955;28;20233;-87
2023/04/10 06:48:54;;;;;;;18.63;12.57;;;;;;;;;;5052680;28;20226;-87
2023/04/10 06:51:21;;;;;;;17.13;12.43;;;;;;;;;;5032979;28;20236;-88
2023/04/10 06:53:55;;;;;;;16.83;12.27;;;;;;;;;;5039307;28;20215;-87
2023/04/10 06:56:28;;;;;;;17.97;12.10;;;;;;;;;;5052183;28;20230;-87
2023/04/10 06:59:02;;;;;;;19.33;12.93;;;;;;;;;;5053478;28;20194;-87
2023/04/10 07:01:29;;;;;;;17.33;13.47;;;;;;;;;;5052235;28;20239;-87
2023/04/10 07:03:56;;;;;;;23.27;14.60;;;;;;;;;;5055087;28;20226;-86
2023/04/10 07:06:23;;;;;;;24.50;14.73;;;;;;;;;;5056678;28;20237;-87
2023/04/10 07:08:57;;;;;;;22.87;15.70;;;;;;;;;;5056528;28;20717;-86
2023/04/10 07:11:34;;;;;;;24.07;15.37;;;;;;;;;;5056243;28;20240;-86
2023/04/10 07:14:01;;;;;;;22.97;15.60;;;;;;;;;;5053613;28;20214;-86
2023/04/10 07:16:28;;;;;;;25.57;16.17;;;;;;;;;;5036411;28;20245;-86
2023/04/10 07:18:55;;;;;;;21.27;14.67;;;;;;;;;;5036677;28;20251;-88
2023/04/10 07:21:22;;;;;;;19.10;13.00;;;;;;;;;;5036197;28;20690;-85
2023/04/10 07:23:50;;;;;;;20.23;13.40;;;;;;;;;;5041434;28;20224;-86
2023/04/10 07:26:18;;;;;;;17.13;12.83;;;;;;;;;;5054478;28;20313;-83
2023/04/10 07:28:45;;;;;;;15.87;12.30;;;;;;;;;;5055278;28;20240;-84
2023/04/10 07:31:13;;;;;;;15.70;12.27;;;;;;;;;;5054791;28;20233;-83
2023/04/10 07:33:40;;;;;;;15.47;11.77;;;;;;;;;;5055621;28;20187;-83
2023/04/10 07:36:08;;;;;;;12.77;10.10;;;;;;;;;;5035926;28;20226;-83
2023/04/10 07:38:35;;;;;;;15.30;10.53;;;;;;;;;;5035396;28;20202;-83
2023/04/10 07:41:02;;;;;;;12.20;9.50;;;;;;;;;;5034359;28;20242;-83
2023/04/10 07:43:31;;;;;;;12.90;9.97;;;;;;;;;;5036801;28;20672;-83
2023/04/10 07:45:58;;;;;;;13.87;10.53;;;;;;;;;;5034483;28;20234;-83
2023/04/10 07:48:25;;;;;;;13.17;9.13;;;;;;;;;;5035460;28;20211;-86
2023/04/10 07:50:52;;;;;;;12.90;9.73;;;;;;;;;;5049274;22;20238;-85
2023/04/10 07:53:19;;;;;;;14.43;9.03;;;;;;;;;;5025961;28;20191;-84
2023/04/10 07:55:47;;;;;;;9.33;8.30;;;;;;;;;;5033484;28;20214;-82
2023/04/10 07:58:15;;;;;;;13.73;9.23;;;;;;;;;;5016314;28;20235;-82
2023/04/10 08:00:43;;;;;;;12.20;8.67;;;;;;;;;;5013507;28;20219;-83
2023/04/10 08:03:12;;;;;;;8.57;7.10;;;;;;;;;;5013855;28;20588;-83
2023/04/10 08:05:39;;;;;;;11.83;8.53;;;;;;;;;;5013720;28;20235;-82
2023/04/10 08:08:06;;;;;;;10.77;8.37;;;;;;;;;;5014506;28;20226;-82
2023/04/10 08:10:33;;;;;;;11.07;8.57;;;;;;;;;;5013566;28;20607;-85
2023/04/10 08:13:00;;;;;;;8.57;7.40;;;;;;;;;;5005634;28;20215;-84
2023/04/10 08:15:28;;;;;;;10.53;8.00;;;;;;;;;;4998388;28;20212;-83
2023/04/10 08:17:57;;;;;;;10.90;8.17;;;;;;;;;;4993981;28;20239;-83
2023/04/10 08:20:24;;;;;;;8.87;7.07;;;;;;;;;;4997020;28;20220;-84
2023/04/10 08:22:52;;;;;;;8.07;7.13;;;;;;;;;;5013635;28;20767;-83
2023/04/10 08:25:19;;;;;;;12.60;7.57;;;;;;;;;;5014393;28;20187;-84
2023/04/10 08:27:46;;;;;;;8.97;7.03;;;;;;;;;;5013949;28;20235;-82
2023/04/10 08:30:13;;;;;;;10.30;7.00;;;;;;;;;;5013993;28;20234;-82
2023/04/10 08:32:40;;;;;;;7.97;6.93;;;;;;;;;;5013189;28;20230;-83
2023/04/10 08:35:09;;;;;;;8.43;6.97;;;;;;;;;;5014371;28;20218;-83
2023/04/10 08:37:36;;;;;;;7.03;6.27;;;;;;;;;;5013598;28;20741;-83
2023/04/10 08:40:03;;;;;;;7.87;6.60;;;;;;;;;;5013464;28;20230;-83
2023/04/10 08:42:31;;;;;;;7.87;6.63;;;;;;;;;;5012831;28;20244;-83
2023/04/10 08:44:58;;;;;;;7.10;5.87;;;;;;;;;;5013570;28;20231;-83
2023/04/10 08:47:28;;;;;;;7.40;6.37;;;;;;;;;;5012948;28;20246;-83
2023/04/10 08:49:57;;;;;;;7.47;6.30;;;;;;;;;;5013180;28;20254;-83
2023/04/10 08:52:26;;;;;;;6.23;5.63;;;;;;;;;;5011580;28;20238;-84
2023/04/10 08:55:04;;;;;;;5.47;4.83;;;;;;;;;;4994501;28;20211;-84
2023/04/10 08:57:31;;;;;;;5.97;5.03;;;;;;;;;;5009927;28;20230;-85
2023/04/10 08:59:59;;;;;;;4.80;4.30;;;;;;;;;;5013081;28;20226;-85
2023/04/10 09:02:26;;;;;;;7.00;5.30;;;;;;;;;;5013335;28;20231;-82
2023/04/10 09:04:54;;;;;;;5.80;5.27;;;;;;;;;;4999982;28;20207;-82
2023/04/10 09:07:21;;;;;;;5.00;4.30;;;;;;;;;;5010779;28;20322;-83
2023/04/10 09:09:50;;;;;;;5.40;4.87;;;;;;;;;;5013209;28;20235;-83
2023/04/10 09:12:17;;;;;;;4.80;4.30;;;;;;;;;;5004047;28;20644;-83
2023/04/10 09:14:44;;;;;;;4.80;4.30;;;;;;;;;;5002640;28;20200;-82
2023/04/10 09:17:15;;;;;;;5.07;4.57;;;;;;;;;;5013077;28;20239;-82
2023/04/10 09:19:43;;;;;;;3.93;3.60;;;;;;;;;;5013360;28;20285;-84
2023/04/10 09:22:10;;;;;;;4.43;4.03;;;;;;;;;;5012957;28;20231;-83
2023/04/10 09:24:38;;;;;;;4.20;3.80;;;;;;;;;;5013016;28;20195;-83
2023/04/10 09:27:06;;;;;;;4.53;4.03;;;;;;;;;;5012103;28;20714;-83
2023/04/10 09:29:40;;;;;;;4.47;3.90;;;;;;;;;;5013249;28;20240;-83
2023/04/10 09:32:07;;;;;;;4.20;3.80;;;;;;;;;;5012548;28;20235;-84
2023/04/10 09:34:34;;;;;;;4.05;3.63;;;;;;;;;;5013185;28;20670;-83
2023/04/10 09:37:01;;;;;;;4.00;3.60;;;;;;;;;;5012460;28;20235;-84
2023/04/10 09:39:34;;;;;;;4.07;3.70;;;;;;;;;;5012512;28;20211;-84
2023/04/10 09:42:01;;;;;;;3.90;3.60;;;;;;;;;;5012275;28;20246;-84
2023/04/10 09:44:33;;;;;;;3.40;3.10;;;;;;;;;;5012106;28;20223;-84
2023/04/10 09:47:00;;;;;;;4.82;3.45;;;;;;;;;;5013478;28;20729;-85
2023/04/10 09:49:27;;;;;;;3.35;3.10;;;;;;;;;;5012849;28;20235;-84
2023/04/10 09:51:54;;;;;;;4.53;3.45;;;;;;;;;;4995739;28;20243;-84
2023/04/10 09:54:35;;;;;;;3.53;3.22;;;;;;;;;;4998734;28;20206;-84
2023/04/10 09:57:03;;;;;;;3.95;3.55;;;;;;;;;;5011891;28;20262;-84
2023/04/10 09:59:30;;;;;;;3.30;3.00;;;;;;;;;;5012533;28;20207;-84
2023/04/10 10:01:59;;;;;;;2.88;2.67;;;;;;;;;;5011582;28;20235;-84
2023/04/10 10:04:26;;;;;;;2.75;2.55;;;;;;;;;;4996788;28;20200;-83
2023/04/10 10:06:54;;;;;;;2.90;2.70;;;;;;;;;;4992480;28;20247;-83
2023/04/10 10:09:21;;;;;;;3.42;3.13;;;;;;;;;;4992962;28;20229;-83
2023/04/10 10:11:49;;;;;;;3.10;2.90;;;;;;;;;;4992265;28;20232;-83
2023/04/10 10:14:18;;;;;;;2.75;2.47;;;;;;;;;;4992750;28;20208;-83
2023/04/10 10:16:47;;;;;;;3.10;2.90;;;;;;;;;;5009475;28;20237;-83
2023/04/10 10:19:20;;;;;;;2.97;2.78;;;;;;;;;;5012778;28;20214;-83
2023/04/10 10:21:47;;;;;;;2.72;2.53;;;;;;;;;;5011905;28;20235;-83
2023/04/10 10:24:16;;;;;;;2.63;2.42;;;;;;;;;;5012329;28;20565;-83
2023/04/10 10:26:44;;;;;;;2.55;2.35;;;;;;;;;;5011875;28;20238;-83
2023/04/10 10:29:12;;;;;;;2.55;2.35;;;;;;;;;;5011594;28;20226;-85
2023/04/10 10:31:40;;;;;;;2.55;2.35;;;;;;;;;;5012031;28;20239;-84
2023/04/10 10:34:07;;;;;;;2.50;2.30;;;;;;;;;;5012251;28;20380;-84
2023/04/10 10:36:36;;;;;;;2.50;2.30;;;;;;;;;;5011722;28;20231;-83
2023/04/10 10:39:16;;;;;;;2.60;2.40;;;;;;;;;;5011202;28;20218;-84
2023/04/10 10:41:45;;;;;;;2.67;2.42;;;;;;;;;;5011019;28;20237;-84
2023/04/10 10:44:15;;;;;;;2.50;2.30;;;;;;;;;;5011709;28;20269;-84
2023/04/10 10:46:44;;;;;;;2.55;2.35;;;;;;;;;;5011372;28;20237;-84
2023/04/10 10:49:11;;;;;;;2.10;2.00;;;;;;;;;;5011749;28;20215;-83
2023/04/10 10:51:45;;;;;;;2.70;2.30;;;;;;;;;;5010989;28;20286;-83
2023/04/10 10:54:28;;;;;;;2.67;2.15;;;;;;;;;;5011893;28;20194;-85
2023/04/10 10:56:55;;;;;;;2.40;2.20;;;;;;;;;;5011443;28;20769;-84
2023/04/10 10:59:37;;;;;;;2.40;2.28;;;;;;;;;;5011815;28;20566;-84
2023/04/10 11:02:14;;;;;;;2.92;2.72;;;;;;;;;;5010462;28;20235;-83
2023/04/10 11:04:42;;;;;;;2.30;2.20;;;;;;;;;;5011854;28;20214;-84
2023/04/10 11:07:11;;;;;;;2.55;2.35;;;;;;;;;;5010436;28;20305;-83
2023/04/10 11:09:48;;;;;;;2.17;2.03;;;;;;;;;;5011548;28;20684;-84
2023/04/10 11:12:15;;;;;;;2.40;2.30;;;;;;;;;;5010938;28;20257;-85
2023/04/10 11:14:43;;;;;;;2.38;2.28;;;;;;;;;;5011487;28;20476;-84
2023/04/10 11:17:11;;;;;;;2.08;1.98;;;;;;;;;;5010812;28;20297;-85
2023/04/10 11:19:58;;;;;;;2.45;2.25;;;;;;;;;;5010901;28;20215;-84
2023/04/10 11:22:26;;;;;;;2.30;2.10;;;;;;;;;;5010518;28;20643;-84
2023/04/10 11:24:55;;;;;;;2.40;2.20;;;;;;;;;;5011528;28;20245;-85
2023/04/10 11:27:41;;;;;;;1.95;1.85;;;;;;;;;;5010357;28;20332;-84
2023/04/10 11:30:23;;;;;;;2.15;2.00;;;;;;;;;;5011419;28;20241;-85
2023/04/10 11:32:50;;;;;;;2.35;2.15;;;;;;;;;;5010033;28;20582;-85
2023/04/10 11:35:20;;;;;;;2.28;2.08;;;;;;;;;;5011365;28;20203;-85
2023/04/10 11:37:48;;;;;;;2.30;2.20;;;;;;;;;;5011004;28;20301;-84
2023/04/10 11:40:15;;;;;;;2.17;2.00;;;;;;;;;;5011204;28;20224;-84
2023/04/10 11:42:43;;;;;;;2.00;1.90;;;;;;;;;;5010885;28;20235;-84
2023/04/10 11:45:23;;;;;;;2.20;2.10;;;;;;;;;;5011103;28;20200;-84
2023/04/10 11:47:51;;;;;;;1.80;1.70;;;;;;;;;;5010997;28;20601;-85
2023/04/10 11:50:19;;;;;;;2.42;2.03;;;;;;;;;;5013901;28;20234;-84
2023/04/10 11:52:48;;;;;;;1.92;1.83;;;;;;;;;;5014504;28;20728;-85
2023/04/10 11:55:16;;;;;;;1.90;1.80;;;;;;;;;;5014790;28;20241;-85
2023/04/10 11:57:43;;;;;;;2.08;1.95;;;;;;;;;;5014486;28;20243;-84
2023/04/10 12:00:11;;;;;;;2.40;2.20;;;;;;;;;;5014916;28;20699;-85
2023/04/10 12:02:50;;;;;;;2.10;2.00;;;;;;;;;;5014459;28;20237;-86
2023/04/10 12:05:17;;;;;;;1.75;1.65;;;;;;;;;;5014612;28;20710;-86
2023/04/10 12:07:44;;;;;;;2.58;2.38;;;;;;;;;;5014451;28;20601;-86
2023/04/10 12:10:13;;;;;;;2.30;2.10;;;;;;;;;;5014765;28;20235;-87
2023/04/10 12:12:40;;;;;;;2.22;2.13;;;;;;;;;;5013653;28;20238;-86
2023/04/10 12:15:23;;;;;;;2.15;1.90;;;;;;;;;;5014645;28;20726;-84
2023/04/10 12:17:50;;;;;;;2.00;1.90;;;;;;;;;;5013872;28;20231;-84
2023/04/10 12:20:18;;;;;;;2.15;2.05;;;;;;;;;;5014394;28;20230;-84
2023/04/10 12:22:45;;;;;;;2.25;2.05;;;;;;;;;;5013942;28;20309;-85
2023/04/10 12:25:16;;;;;;;2.00;1.88;;;;;;;;;;5014581;28;20832;-85
2023/04/10 12:27:49;;;;;;;1.77;1.67;;;;;;;;;;5014177;28;20342;-84
2023/04/10 12:30:17;;;;;;;1.98;1.88;;;;;;;;;;5010696;28;20223;-84
2023/04/10 12:32:51;;;;;;;2.40;2.30;;;;;;;;;;5013624;28;20765;-84
2023/04/10 12:35:18;;;;;;;1.85;1.75;;;;;;;;;;5014208;28;20562;-84
2023/04/10 12:37:48;;;;;;;1.83;1.73;;;;;;;;;;5013994;28;20243;-84
2023/04/10 12:40:17;;;;;;;2.03;1.83;;;;;;;;;;5014222;28;20228;-83
2023/04/10 12:42:44;;;;;;;1.60;1.50;;;;;;;;;;5013537;28;20231;-82
2023/04/10 12:45:12;;;;;;;2.15;1.95;;;;;;;;;;5014314;28;20214;-83
2023/04/10 12:47:44;;;;;;;2.28;1.80;;;;;;;;;;5013685;28;20322;-82
2023/04/10 12:50:12;;;;;;;2.17;1.98;;;;;;;;;;5013770;28;20357;-82
2023/04/10 12:52:40;;;;;;;1.98;1.85;;;;;;;;;;5013330;28;20239;-82
2023/04/10 12:55:10;;;;;;;1.83;1.73;;;;;;;;;;5014200;28;20644;-81
2023/04/10 12:57:40;;;;;;;1.55;1.48;;;;;;;;;;5013722;28;20707;-82
2023/04/10 13:00:08;;;;;;;1.70;1.60;;;;;;;;;;5013796;28;20330;-82
2023/04/10 13:02:35;;;;;;;3.63;1.52;;;;;;;;;;5012761;28;20277;-82
2023/04/10 13:05:02;;;;;;;2.20;2.10;;;;;;;;;;5013855;28;20203;-83
2023/04/10 13:07:29;;;;;;;2.03;1.83;;;;;;;;;;5013139;28;20235;-83
2023/04/10 13:09:56;;;;;;;1.95;1.85;;;;;;;;;;5013509;28;20632;-83
2023/04/10 13:12:25;;;;;;;2.42;1.70;;;;;;;;;;5012717;28;20239;-83
2023/04/10 13:14:53;;;;;;;1.50;1.40;;;;;;;;;;5013868;28;20214;-83
2023/04/10 13:17:20;;;;;;;4.07;1.50;;;;;;;;;;5013138;28;20779;-83
2023/04/10 13:19:47;;;;;;;1.45;1.35;;;;;;;;;;5013492;28;20227;-82
2023/04/10 13:22:15;;;;;;;1.55;1.45;;;;;;;;;;5013061;28;20235;-82
2023/04/10 13:24:42;;;;;;;1.50;1.40;;;;;;;;;;5013499;28;20207;-82
2023/04/10 13:27:10;;;;;;;1.73;1.58;;;;;;;;;;4994646;28;20243;-81
2023/04/10 13:29:37;;;;;;;1.88;1.77;;;;;;;;;;5013394;28;20222;-83
2023/04/10 13:32:05;;;;;;;2.13;2.03;;;;;;;;;;5012708;28;20243;-83
2023/04/10 13:34:32;;;;;;;1.77;1.67;;;;;;;;;;5013143;28;20687;-84
2023/04/10 13:36:59;;;;;;;1.77;1.67;;;;;;;;;;5012801;28;20722;-82
2023/04/10 13:39:27;;;;;;;1.75;1.65;;;;;;;;;;5012964;28;20212;-84
2023/04/10 13:41:54;;;;;;;1.90;1.80;;;;;;;;;;5012273;28;20235;-84
2023/04/10 13:44:21;;;;;;;2.00;1.90;;;;;;;;;;5013111;28;20222;-82
2023/04/10 13:46:48;;;;;;;1.80;1.70;;;;;;;;;;5012482;28;20240;-82
2023/04/10 13:49:18;;;;;;;1.80;1.70;;;;;;;;;;5013249;28;20620;-83
2023/04/10 13:51:45;;;;;;;1.90;1.80;;;;;;;;;;5058140;23;20232;-83
2023/04/10 13:54:13;;;;;;;1.60;1.50;;;;;;;;;;5033495;28;20198;-83
2023/04/10 13:56:40;;;;;;;2.13;2.03;;;;;;;;;;5032475;28;20238;-83
2023/04/10 13:59:07;;;;;;;3.13;2.58;;;;;;;;;;5032635;28;20774;-83
2023/04/10 14:01:34;;;;;;;3.15;2.85;;;;;;;;;;5031563;28;20242;-83
2023/04/10 14:04:02;;;;;;;3.55;3.17;;;;;;;;;;5032765;28;20195;-82
2023/04/10 14:06:30;;;;;;;2.83;2.50;;;;;;;;;;5032163;28;20238;-82
2023/04/10 14:08:57;;;;;;;3.47;1.52;;;;;;;;;;5032258;28;20285;-83
2023/04/10 14:11:26;;;;;;;1.67;1.58;;;;;;;;;;5028164;28;20237;-83
2023/04/10 14:13:53;;;;;;;1.67;1.58;;;;;;;;;;5031846;28;20293;-83
2023/04/10 14:16:20;;;;;;;1.42;1.30;;;;;;;;;;5031130;28;20237;-83
2023/04/10 14:18:47;;;;;;;1.50;1.40;;;;;;;;;;5031327;28;20210;-84
2023/04/10 14:21:14;;;;;;;1.40;1.30;;;;;;;;;;5030012;28;20238;-84
2023/04/10 14:23:42;;;;;;;1.58;1.48;;;;;;;;;;5031525;28;20202;-85
2023/04/10 14:26:09;;;;;;;1.63;1.52;;;;;;;;;;5028756;28;20772;-85
2023/04/10 14:28:37;;;;;;;1.10;1.10;;;;;;;;;;5032246;28;20195;-86
2023/04/10 14:31:05;;;;;;;1.73;1.63;;;;;;;;;;5031612;28;20243;-85
2023/04/10 14:33:33;;;;;;;1.80;1.70;;;;;;;;;;5032108;28;20205;-85
2023/04/10 14:36:00;;;;;;;1.90;1.80;;;;;;;;;;5031134;28;20262;-85
2023/04/10 14:38:27;;;;;;;1.10;1.10;;;;;;;;;;5031751;28;20539;-84
2023/04/10 14:40:56;;;;;;;0.93;0.93;;;;;;;;;;5030912;28;20246;-84
2023/04/10 14:43:23;;;;;;;1.23;1.20;;;;;;;;;;5030790;28;20191;-85
2023/04/10 14:45:50;;;;;;;1.33;1.23;;;;;;;;;;5031399;28;20214;-86